Time;durP1;ratioP1;P1;durP2;ratioP2;P2;SDS_P1;SDS_P2;PMS_P1;PMS_P2;Temp;Humidity;BMP_temperature;BMP_pressure;BME280_temperature;BME280_humidity;BME280_pressure;Samples;Min_cycle;Max_cycle;Signal;HPM_P1;HPM_P2
2024/03/19 00:02:10;;;;;;;3.30;3.10;;;;;;;;;;6244358;23;20181;-50
2024/03/19 00:04:37;;;;;;;3.88;3.58;;;;;;;;;;6243703;22;20177;-52
2024/03/19 00:07:05;;;;;;;4.22;3.83;;;;;;;;;;6243328;22;20203;-52
2024/03/19 00:09:33;;;;;;;5.20;4.70;;;;;;;;;;6243966;23;20555;-52
2024/03/19 00:12:00;;;;;;;5.70;5.20;;;;;;;;;;6243390;22;20184;-51
2024/03/19 00:14:28;;;;;;;4.72;4.32;;;;;;;;;;6243643;22;20173;-50
2024/03/19 00:16:57;;;;;;;4.88;3.78;;;;;;;;;;6243585;22;20173;-55
2024/03/19 00:19:24;;;;;;;5.65;5.15;;;;;;;;;;6243092;22;20169;-52
2024/03/19 00:21:52;;;;;;;3.72;3.42;;;;;;;;;;6243763;22;20626;-51
2024/03/19 00:24:19;;;;;;;4.15;3.83;;;;;;;;;;6243483;22;20204;-52
2024/03/19 00:26:46;;;;;;;4.20;3.80;;;;;;;;;;6243794;22;20570;-51
2024/03/19 00:29:14;;;;;;;4.80;4.40;;;;;;;;;;6243495;22;20197;-50
2024/03/19 00:31:41;;;;;;;7.18;6.38;;;;;;;;;;6243029;22;20173;-52
2024/03/19 00:34:10;;;;;;;4.82;4.43;;;;;;;;;;6243460;22;20179;-52
2024/03/19 00:36:38;;;;;;;5.25;4.85;;;;;;;;;;6243311;22;20173;-51
2024/03/19 00:39:10;;;;;;;4.75;4.32;;;;;;;;;;6243394;22;20197;-52
2024/03/19 00:41:37;;;;;;;4.60;4.20;;;;;;;;;;6243550;23;20157;-52
2024/03/19 00:44:05;;;;;;;5.90;5.32;;;;;;;;;;6243851;22;20640;-53
2024/03/19 00:46:33;;;;;;;4.25;3.95;;;;;;;;;;6243624;22;20173;-52
2024/03/19 00:49:01;;;;;;;5.00;4.50;;;;;;;;;;6243669;22;20207;-51
2024/03/19 00:51:30;;;;;;;5.20;4.70;;;;;;;;;;6243812;23;20173;-50
2024/03/19 00:53:57;;;;;;;5.65;5.15;;;;;;;;;;6243696;23;20188;-52
2024/03/19 00:56:26;;;;;;;3.75;3.35;;;;;;;;;;6243876;22;20240;-51
2024/03/19 00:58:53;;;;;;;5.13;4.68;;;;;;;;;;6243777;22;20812;-54
2024/03/19 01:01:21;;;;;;;5.60;5.10;;;;;;;;;;6242976;22;20173;-50
2024/03/19 01:03:48;;;;;;;6.80;6.10;;;;;;;;;;6242867;22;20173;-50
2024/03/19 01:06:16;;;;;;;7.13;5.32;;;;;;;;;;6243517;22;20183;-52
2024/03/19 01:08:45;;;;;;;4.10;3.78;;;;;;;;;;6243048;22;20243;-51
2024/03/19 01:11:12;;;;;;;6.88;6.18;;;;;;;;;;6242899;22;20197;-52
2024/03/19 01:13:41;;;;;;;8.05;7.25;;;;;;;;;;6242737;22;20188;-52
2024/03/19 01:16:08;;;;;;;8.68;7.88;;;;;;;;;;6243785;22;20180;-53
2024/03/19 01:18:36;;;;;;;8.27;7.22;;;;;;;;;;6243430;22;20647;-50
2024/03/19 01:21:03;;;;;;;8.00;7.22;;;;;;;;;;6243097;22;20223;-53
2024/03/19 01:23:31;;;;;;;9.73;8.82;;;;;;;;;;6243223;22;20498;-49
2024/03/19 01:26:00;;;;;;;6.82;6.20;;;;;;;;;;6245668;22;20173;-50
2024/03/19 01:28:27;;;;;;;7.60;6.90;;;;;;;;;;6245476;22;20204;-49
2024/03/19 01:30:54;;;;;;;7.75;6.78;;;;;;;;;;6244805;22;20658;-50
2024/03/19 01:33:22;;;;;;;7.20;6.50;;;;;;;;;;6244849;22;20207;-52
2024/03/19 01:35:49;;;;;;;6.95;6.25;;;;;;;;;;6244750;22;20257;-52
2024/03/19 01:38:17;;;;;;;8.18;7.38;;;;;;;;;;6244476;22;20208;-49
2024/03/19 01:40:47;;;;;;;7.13;6.43;;;;;;;;;;6245237;22;20223;-49
2024/03/19 01:43:16;;;;;;;8.90;7.65;;;;;;;;;;6245193;23;20158;-52
2024/03/19 01:45:44;;;;;;;10.00;7.35;;;;;;;;;;6245198;22;20173;-51
2024/03/19 01:48:11;;;;;;;9.18;8.00;;;;;;;;;;6244817;22;20193;-54
2024/03/19 01:50:40;;;;;;;7.13;6.43;;;;;;;;;;6245361;23;20203;-52
2024/03/19 01:53:08;;;;;;;9.70;7.60;;;;;;;;;;6244702;22;20181;-50
2024/03/19 01:55:35;;;;;;;9.23;7.70;;;;;;;;;;6244784;22;20173;-50
2024/03/19 01:58:03;;;;;;;9.05;7.45;;;;;;;;;;6244976;22;20203;-51
2024/03/19 02:00:32;;;;;;;11.10;7.57;;;;;;;;;;6245471;22;20256;-54
2024/03/19 02:02:59;;;;;;;7.43;6.57;;;;;;;;;;6245481;22;20180;-48
2024/03/19 02:05:26;;;;;;;7.65;6.90;;;;;;;;;;6244975;22;20177;-51
2024/03/19 02:07:54;;;;;;;9.52;7.40;;;;;;;;;;6245386;22;20193;-50
2024/03/19 02:10:22;;;;;;;9.95;7.95;;;;;;;;;;6245142;23;20197;-48
2024/03/19 02:12:49;;;;;;;8.68;7.60;;;;;;;;;;6245044;22;20173;-46
2024/03/19 02:15:17;;;;;;;8.18;7.38;;;;;;;;;;6245453;22;20173;-51
2024/03/19 02:17:47;;;;;;;8.45;7.47;;;;;;;;;;6245150;22;20193;-50
2024/03/19 02:20:15;;;;;;;8.73;7.88;;;;;;;;;;6245491;22;20498;-50
2024/03/19 02:22:46;;;;;;;9.00;8.10;;;;;;;;;;6245318;22;20181;-51
2024/03/19 02:25:13;;;;;;;10.80;9.02;;;;;;;;;;6245282;23;20161;-49
2024/03/19 02:27:41;;;;;;;9.65;8.13;;;;;;;;;;6245018;22;20193;-49
2024/03/19 02:30:10;;;;;;;9.00;7.90;;;;;;;;;;6244665;22;20173;-49
2024/03/19 02:32:37;;;;;;;10.60;8.52;;;;;;;;;;6244506;22;20183;-48
2024/03/19 02:35:05;;;;;;;8.50;7.55;;;;;;;;;;6244990;22;20265;-48
2024/03/19 02:37:33;;;;;;;8.75;7.85;;;;;;;;;;6245304;23;20201;-51
2024/03/19 02:40:05;;;;;;;11.13;7.75;;;;;;;;;;6245443;22;20183;-48
2024/03/19 02:42:32;;;;;;;8.93;7.38;;;;;;;;;;6245386;23;20154;-50
2024/03/19 02:45:00;;;;;;;10.20;8.68;;;;;;;;;;6245187;22;20562;-54
2024/03/19 02:47:27;;;;;;;10.80;8.43;;;;;;;;;;6244167;22;20197;-51
2024/03/19 02:49:54;;;;;;;8.32;7.40;;;;;;;;;;6244872;22;20180;-50
2024/03/19 02:52:22;;;;;;;9.35;7.75;;;;;;;;;;6244440;22;20529;-51
2024/03/19 02:54:49;;;;;;;8.63;7.68;;;;;;;;;;6244504;22;20185;-48
2024/03/19 02:57:18;;;;;;;9.68;7.55;;;;;;;;;;6244211;22;20193;-49
2024/03/19 02:59:46;;;;;;;9.20;8.05;;;;;;;;;;6244615;22;20252;-50
2024/03/19 03:02:13;;;;;;;9.63;8.07;;;;;;;;;;6244904;22;20702;-48
2024/03/19 03:04:40;;;;;;;8.27;7.40;;;;;;;;;;6244724;22;20173;-50
2024/03/19 03:07:08;;;;;;;10.55;8.00;;;;;;;;;;6244486;22;20197;-49
2024/03/19 03:09:35;;;;;;;9.57;8.55;;;;;;;;;;6244737;22;20173;-50
2024/03/19 03:12:03;;;;;;;8.88;7.85;;;;;;;;;;6244947;22;20259;-49
2024/03/19 03:14:33;;;;;;;9.13;8.20;;;;;;;;;;6244397;22;20190;-49
2024/03/19 03:17:00;;;;;;;9.68;8.40;;;;;;;;;;6244758;22;20208;-48
2024/03/19 03:19:28;;;;;;;9.15;7.72;;;;;;;;;;6244511;22;20173;-49
2024/03/19 03:21:55;;;;;;;11.07;8.25;;;;;;;;;;6243908;22;20175;-51
2024/03/19 03:24:22;;;;;;;9.70;7.75;;;;;;;;;;6244454;22;20183;-51
2024/03/19 03:26:50;;;;;;;8.73;7.85;;;;;;;;;;6243836;22;20179;-49
2024/03/19 03:29:17;;;;;;;10.52;9.43;;;;;;;;;;6244819;22;20710;-50
2024/03/19 03:31:46;;;;;;;9.35;8.05;;;;;;;;;;6244137;22;20208;-50
2024/03/19 03:34:14;;;;;;;11.60;9.43;;;;;;;;;;6244524;22;20177;-50
2024/03/19 03:36:40;;;;;;;9.18;7.80;;;;;;;;;;6244135;22;20690;-48
2024/03/19 03:39:08;;;;;;;8.77;7.80;;;;;;;;;;6244211;22;20204;-52
2024/03/19 03:41:35;;;;;;;10.65;9.60;;;;;;;;;;6244734;23;20628;-47
2024/03/19 03:44:03;;;;;;;8.90;8.00;;;;;;;;;;6244556;22;20252;-48
2024/03/19 03:46:30;;;;;;;9.52;8.13;;;;;;;;;;6243893;22;20539;-48
2024/03/19 03:48:59;;;;;;;8.18;7.18;;;;;;;;;;6244015;22;20199;-47
2024/03/19 03:51:26;;;;;;;8.35;7.45;;;;;;;;;;6244292;22;20203;-46
2024/03/19 03:53:54;;;;;;;8.30;7.07;;;;;;;;;;6243746;22;20188;-49
2024/03/19 03:56:21;;;;;;;7.68;6.88;;;;;;;;;;6244549;22;20256;-49
2024/03/19 03:58:49;;;;;;;8.85;7.75;;;;;;;;;;6243828;22;20204;-52
2024/03/19 04:01:18;;;;;;;8.82;7.93;;;;;;;;;;6244219;22;20252;-49
2024/03/19 04:03:46;;;;;;;9.60;7.68;;;;;;;;;;6242972;23;20184;-49
2024/03/19 04:06:14;;;;;;;11.50;9.27;;;;;;;;;;6243569;22;20179;-48
2024/03/19 04:08:42;;;;;;;9.90;8.90;;;;;;;;;;6243655;22;20276;-51
2024/03/19 04:11:11;;;;;;;10.68;8.25;;;;;;;;;;6244191;22;20177;-51
2024/03/19 04:13:38;;;;;;;9.20;8.15;;;;;;;;;;6244248;23;20260;-52
2024/03/19 04:16:07;;;;;;;8.63;7.25;;;;;;;;;;6243853;22;20184;-49
2024/03/19 04:18:34;;;;;;;8.57;7.72;;;;;;;;;;6243537;22;20205;-48
2024/03/19 04:21:01;;;;;;;8.38;7.45;;;;;;;;;;6243808;22;20256;-50
2024/03/19 04:23:31;;;;;;;7.82;7.03;;;;;;;;;;6243731;22;20173;-48
2024/03/19 04:25:58;;;;;;;7.05;6.35;;;;;;;;;;6243650;22;20264;-48
2024/03/19 04:28:26;;;;;;;6.97;6.32;;;;;;;;;;6243718;22;20199;-53
2024/03/19 04:30:53;;;;;;;6.93;6.22;;;;;;;;;;6243818;22;20448;-48
2024/03/19 04:33:20;;;;;;;5.93;5.22;;;;;;;;;;6243293;22;20276;-48
2024/03/19 04:35:48;;;;;;;6.57;5.97;;;;;;;;;;6243804;22;20527;-49
2024/03/19 04:38:15;;;;;;;5.18;4.65;;;;;;;;;;6243805;22;20193;-48
2024/03/19 04:40:44;;;;;;;5.60;5.00;;;;;;;;;;6243396;22;20177;-52
2024/03/19 04:43:12;;;;;;;6.13;5.53;;;;;;;;;;6243422;22;20207;-49
2024/03/19 04:45:39;;;;;;;6.10;5.47;;;;;;;;;;6243943;22;20173;-49
2024/03/19 04:48:08;;;;;;;6.03;5.38;;;;;;;;;;6243576;22;20256;-48
2024/03/19 04:50:35;;;;;;;5.85;5.25;;;;;;;;;;6243845;22;20181;-48
2024/03/19 04:53:02;;;;;;;7.32;6.03;;;;;;;;;;6243276;22;20197;-51
2024/03/19 04:55:30;;;;;;;5.38;4.53;;;;;;;;;;6243257;22;20251;-50
2024/03/19 04:57:59;;;;;;;5.15;4.65;;;;;;;;;;6244335;22;20193;-51
2024/03/19 05:00:26;;;;;;;7.10;6.38;;;;;;;;;;6245059;22;20559;-49
2024/03/19 05:02:54;;;;;;;8.43;7.65;;;;;;;;;;6246116;23;20173;-50
2024/03/19 05:05:22;;;;;;;7.38;6.55;;;;;;;;;;6245630;22;20173;-49
2024/03/19 05:07:49;;;;;;;7.45;6.75;;;;;;;;;;6245485;22;20301;-50
2024/03/19 05:10:17;;;;;;;5.55;5.03;;;;;;;;;;6245483;22;20177;-49
2024/03/19 05:12:45;;;;;;;5.10;4.70;;;;;;;;;;6245750;22;20196;-50
2024/03/19 05:15:13;;;;;;;9.13;6.57;;;;;;;;;;6245950;22;20173;-48
2024/03/19 05:17:41;;;;;;;5.93;5.22;;;;;;;;;;6245424;22;20666;-49
2024/03/19 05:20:10;;;;;;;10.07;9.07;;;;;;;;;;6246063;22;20173;-50
2024/03/19 05:22:37;;;;;;;9.45;8.55;;;;;;;;;;6246670;23;20205;-48
2024/03/19 05:25:06;;;;;;;8.55;7.65;;;;;;;;;;6246010;22;20173;-49
2024/03/19 05:27:33;;;;;;;8.32;7.53;;;;;;;;;;6245534;22;20204;-51
2024/03/19 05:30:01;;;;;;;8.65;7.75;;;;;;;;;;6245591;22;20173;-49
2024/03/19 05:32:29;;;;;;;9.00;7.95;;;;;;;;;;6245404;22;20657;-49
2024/03/19 05:34:57;;;;;;;7.63;6.85;;;;;;;;;;6245732;22;20173;-50
2024/03/19 05:37:24;;;;;;;8.10;7.32;;;;;;;;;;6247733;22;20698;-55
2024/03/19 05:39:52;;;;;;;9.95;8.95;;;;;;;;;;6248230;22;20173;-50
2024/03/19 05:42:19;;;;;;;8.52;7.63;;;;;;;;;;6248987;22;20677;-51
2024/03/19 05:44:49;;;;;;;6.78;6.18;;;;;;;;;;6248364;22;20228;-49
2024/03/19 05:47:16;;;;;;;8.65;7.78;;;;;;;;;;6248501;22;20197;-50
2024/03/19 05:49:46;;;;;;;7.50;6.75;;;;;;;;;;6248640;22;20184;-50
2024/03/19 05:52:14;;;;;;;8.68;7.82;;;;;;;;;;6248393;23;20176;-54
2024/03/19 05:54:41;;;;;;;9.38;7.95;;;;;;;;;;6248148;22;20185;-49
2024/03/19 05:57:09;;;;;;;10.18;7.72;;;;;;;;;;6247722;22;20200;-50
2024/03/19 05:59:37;;;;;;;12.00;10.38;;;;;;;;;;6246421;22;20252;-53
2024/03/19 06:02:06;;;;;;;9.90;8.13;;;;;;;;;;6245579;22;20179;-50
2024/03/19 06:04:34;;;;;;;14.35;10.93;;;;;;;;;;6245321;23;20169;-50
2024/03/19 06:07:03;;;;;;;12.80;11.07;;;;;;;;;;6245283;22;20613;-54
2024/03/19 06:09:30;;;;;;;13.48;9.52;;;;;;;;;;6244828;22;20177;-51
2024/03/19 06:11:58;;;;;;;11.75;9.90;;;;;;;;;;6245251;22;20203;-55
2024/03/19 06:14:26;;;;;;;11.50;9.60;;;;;;;;;;6245336;22;20526;-55
2024/03/19 06:16:53;;;;;;;7.93;7.13;;;;;;;;;;6245588;22;20169;-52
2024/03/19 06:19:21;;;;;;;7.90;7.10;;;;;;;;;;6245139;22;20179;-52
2024/03/19 06:21:48;;;;;;;6.70;6.10;;;;;;;;;;6245324;22;20181;-52
2024/03/19 06:24:17;;;;;;;9.85;7.07;;;;;;;;;;6245935;22;20272;-50
2024/03/19 06:26:44;;;;;;;6.97;6.28;;;;;;;;;;6246479;22;20180;-52
2024/03/19 06:29:12;;;;;;;14.07;9.98;;;;;;;;;;6245843;22;20173;-49
2024/03/19 06:31:39;;;;;;;9.75;7.82;;;;;;;;;;6245914;22;20179;-51
2024/03/19 06:34:06;;;;;;;8.30;7.50;;;;;;;;;;6246001;22;20197;-52
2024/03/19 06:36:34;;;;;;;9.50;7.28;;;;;;;;;;6246213;22;20173;-50
2024/03/19 06:39:03;;;;;;;7.82;7.03;;;;;;;;;;6246052;22;20193;-52
2024/03/19 06:41:32;;;;;;;9.25;8.30;;;;;;;;;;6246487;23;20630;-49
2024/03/19 06:44:00;;;;;;;9.25;7.97;;;;;;;;;;6246395;22;20642;-50
2024/03/19 06:46:27;;;;;;;10.18;7.45;;;;;;;;;;6246644;22;20177;-51
2024/03/19 06:48:55;;;;;;;9.90;8.05;;;;;;;;;;6247024;22;20193;-53
2024/03/19 06:51:22;;;;;;;9.75;8.38;;;;;;;;;;6246736;22;20173;-51
2024/03/19 06:53:50;;;;;;;10.25;9.05;;;;;;;;;;6246548;22;20203;-51
2024/03/19 06:56:17;;;;;;;12.43;10.63;;;;;;;;;;6247025;22;20252;-50
2024/03/19 06:58:46;;;;;;;12.02;9.68;;;;;;;;;;6246632;22;20193;-54
2024/03/19 07:01:14;;;;;;;11.55;9.98;;;;;;;;;;6246346;22;20180;-50
2024/03/19 07:03:41;;;;;;;10.98;9.48;;;;;;;;;;6246422;22;20192;-52
2024/03/19 07:06:10;;;;;;;10.20;8.82;;;;;;;;;;6246791;22;20561;-52
2024/03/19 07:08:39;;;;;;;10.90;9.50;;;;;;;;;;6248326;23;20531;-50
2024/03/19 07:11:09;;;;;;;10.40;8.70;;;;;;;;;;6248313;22;20231;-50
2024/03/19 07:13:36;;;;;;;9.82;8.18;;;;;;;;;;6246226;23;20239;-49
2024/03/19 07:16:06;;;;;;;12.73;10.27;;;;;;;;;;6247899;22;20174;-50
2024/03/19 07:18:34;;;;;;;12.55;8.88;;;;;;;;;;6246377;22;20258;-51
2024/03/19 07:21:02;;;;;;;13.70;9.73;;;;;;;;;;6246840;22;20255;-54
2024/03/19 07:23:29;;;;;;;12.13;10.55;;;;;;;;;;6246951;22;20216;-52
2024/03/19 07:25:57;;;;;;;12.52;10.70;;;;;;;;;;6247549;22;20212;-55
2024/03/19 07:28:25;;;;;;;13.15;9.93;;;;;;;;;;6247789;22;20699;-50
2024/03/19 07:30:52;;;;;;;14.00;10.95;;;;;;;;;;6247919;22;20184;-50
2024/03/19 07:33:21;;;;;;;10.60;9.07;;;;;;;;;;6246706;22;20181;-54
2024/03/19 07:35:49;;;;;;;13.13;10.55;;;;;;;;;;6247811;22;20177;-54
2024/03/19 07:38:16;;;;;;;8.50;7.57;;;;;;;;;;6247081;22;20280;-49
2024/03/19 07:40:43;;;;;;;12.18;9.90;;;;;;;;;;6246942;22;20180;-53
2024/03/19 07:43:13;;;;;;;14.35;11.23;;;;;;;;;;6247133;22;20173;-49
2024/03/19 07:45:41;;;;;;;12.77;11.02;;;;;;;;;;6248702;22;20180;-50
2024/03/19 07:48:12;;;;;;;17.10;12.95;;;;;;;;;;6248320;22;20193;-53
2024/03/19 07:50:41;;;;;;;14.02;12.00;;;;;;;;;;6248120;22;20157;-52
2024/03/19 07:53:09;;;;;;;11.65;9.70;;;;;;;;;;6247684;22;20245;-51
2024/03/19 07:55:37;;;;;;;11.82;9.57;;;;;;;;;;6247762;22;20582;-49
2024/03/19 07:58:05;;;;;;;9.65;7.90;;;;;;;;;;6247270;23;20199;-52
2024/03/19 08:00:33;;;;;;;10.38;9.18;;;;;;;;;;6248152;23;20540;-52
2024/03/19 08:03:01;;;;;;;11.60;9.65;;;;;;;;;;6247575;22;20207;-50
2024/03/19 08:05:28;;;;;;;10.18;8.38;;;;;;;;;;6247389;22;20169;-52
2024/03/19 08:07:58;;;;;;;10.70;9.07;;;;;;;;;;6247528;22;20276;-50
2024/03/19 08:10:25;;;;;;;14.45;11.38;;;;;;;;;;6246209;22;20626;-53
2024/03/19 08:12:53;;;;;;;11.20;9.32;;;;;;;;;;6245898;22;20180;-52
2024/03/19 08:15:20;;;;;;;11.50;9.57;;;;;;;;;;6246570;22;20202;-50
2024/03/19 08:17:48;;;;;;;15.63;11.77;;;;;;;;;;6246322;22;20219;-53
2024/03/19 08:20:16;;;;;;;14.30;11.93;;;;;;;;;;6245466;22;20201;-50
2024/03/19 08:22:43;;;;;;;14.77;12.60;;;;;;;;;;6245314;22;20173;-54
2024/03/19 08:25:13;;;;;;;12.50;11.20;;;;;;;;;;6245398;22;20256;-51
2024/03/19 08:27:41;;;;;;;15.40;11.98;;;;;;;;;;6244928;22;20197;-52
2024/03/19 08:30:09;;;;;;;16.55;13.05;;;;;;;;;;6244906;22;20173;-50
2024/03/19 08:32:37;;;;;;;14.70;12.65;;;;;;;;;;6244125;22;20177;-48
2024/03/19 08:35:08;;;;;;;15.52;12.45;;;;;;;;;;6244450;22;20196;-49
2024/03/19 08:37:36;;;;;;;14.10;10.80;;;;;;;;;;6244233;22;20197;-50
2024/03/19 08:40:06;;;;;;;12.02;10.10;;;;;;;;;;6245084;22;20177;-49
2024/03/19 08:42:35;;;;;;;14.90;12.38;;;;;;;;;;6244459;22;20661;-50
2024/03/19 08:45:03;;;;;;;14.68;12.07;;;;;;;;;;6244397;22;20196;-50
2024/03/19 08:47:30;;;;;;;17.02;13.40;;;;;;;;;;6243939;22;20193;-49
2024/03/19 08:49:58;;;;;;;15.32;13.07;;;;;;;;;;6243794;22;20256;-48
2024/03/19 08:52:26;;;;;;;18.85;15.00;;;;;;;;;;6243822;22;20173;-55
2024/03/19 08:54:54;;;;;;;17.10;14.15;;;;;;;;;;6243112;22;20193;-52
2024/03/19 08:57:21;;;;;;;18.35;12.38;;;;;;;;;;6242931;22;20692;-51
2024/03/19 08:59:52;;;;;;;15.32;13.48;;;;;;;;;;6244263;22;20649;-49
2024/03/19 09:02:19;;;;;;;18.98;13.73;;;;;;;;;;6243526;22;20240;-51
2024/03/19 09:04:47;;;;;;;15.55;12.38;;;;;;;;;;6244025;22;20175;-51
2024/03/19 09:07:14;;;;;;;15.95;13.40;;;;;;;;;;6243419;22;20271;-51
2024/03/19 09:09:44;;;;;;;15.73;12.25;;;;;;;;;;6243474;22;20181;-51
2024/03/19 09:12:12;;;;;;;14.48;11.27;;;;;;;;;;6243714;22;20184;-53
2024/03/19 09:14:40;;;;;;;18.80;12.27;;;;;;;;;;6243755;22;20200;-50
2024/03/19 09:17:08;;;;;;;14.32;11.20;;;;;;;;;;6243362;22;20193;-54
2024/03/19 09:19:40;;;;;;;15.00;13.10;;;;;;;;;;6243823;22;20191;-52
2024/03/19 09:22:07;;;;;;;13.50;10.52;;;;;;;;;;6243190;22;20252;-50
2024/03/19 09:24:35;;;;;;;16.27;13.43;;;;;;;;;;6243120;22;20173;-49
2024/03/19 09:27:03;;;;;;;21.95;15.48;;;;;;;;;;6243589;22;20196;-51
2024/03/19 09:29:31;;;;;;;17.02;14.63;;;;;;;;;;6244112;22;20645;-50
2024/03/19 09:31:58;;;;;;;16.55;14.07;;;;;;;;;;6243640;22;20588;-51
2024/03/19 09:34:27;;;;;;;18.33;14.30;;;;;;;;;;6243846;22;20173;-49
2024/03/19 09:36:55;;;;;;;14.05;12.48;;;;;;;;;;6243638;22;20231;-49
2024/03/19 09:39:23;;;;;;;16.15;14.32;;;;;;;;;;6243723;22;20178;-49
2024/03/19 09:42:00;;;;;;;15.40;13.38;;;;;;;;;;6243616;22;20185;-50
2024/03/19 09:44:28;;;;;;;16.48;13.88;;;;;;;;;;6244578;22;20157;-49
2024/03/19 09:46:56;;;;;;;18.40;15.30;;;;;;;;;;6245453;22;20642;-50
2024/03/19 09:49:28;;;;;;;18.58;13.90;;;;;;;;;;6245328;22;20280;-50
2024/03/19 09:51:57;;;;;;;16.60;13.02;;;;;;;;;;6245336;22;20173;-50
2024/03/19 09:54:25;;;;;;;12.60;10.63;;;;;;;;;;6245473;22;20184;-52
2024/03/19 09:56:52;;;;;;;14.07;11.13;;;;;;;;;;6245221;22;20200;-51
2024/03/19 09:59:20;;;;;;;16.42;13.63;;;;;;;;;;6245645;22;20260;-50
2024/03/19 10:01:49;;;;;;;14.90;11.68;;;;;;;;;;6244471;22;20188;-52
2024/03/19 10:04:18;;;;;;;16.90;13.80;;;;;;;;;;6245384;22;20232;-49
2024/03/19 10:06:46;;;;;;;19.33;15.43;;;;;;;;;;6245199;22;20169;-51
2024/03/19 10:09:16;;;;;;;16.02;13.45;;;;;;;;;;6246042;22;20643;-50
2024/03/19 10:11:44;;;;;;;15.00;11.48;;;;;;;;;;6245302;22;20177;-52
2024/03/19 10:14:12;;;;;;;12.82;10.82;;;;;;;;;;6245362;22;20177;-54
2024/03/19 10:16:41;;;;;;;18.08;13.80;;;;;;;;;;6245512;22;20193;-51
2024/03/19 10:19:11;;;;;;;16.60;14.27;;;;;;;;;;6246016;22;20184;-51
2024/03/19 10:21:39;;;;;;;18.85;14.85;;;;;;;;;;6245589;22;20196;-53
2024/03/19 10:24:16;;;;;;;18.65;14.40;;;;;;;;;;6245697;22;20173;-51
2024/03/19 10:26:44;;;;;;;17.70;14.30;;;;;;;;;;6245437;22;20211;-51
2024/03/19 10:29:14;;;;;;;22.00;15.73;;;;;;;;;;6245707;22;20177;-49
2024/03/19 10:31:42;;;;;;;16.10;12.70;;;;;;;;;;6245138;22;20215;-54
2024/03/19 10:34:18;;;;;;;13.35;11.20;;;;;;;;;;6244966;22;20173;-50
2024/03/19 10:36:48;;;;;;;14.05;12.02;;;;;;;;;;6245194;22;20177;-49
2024/03/19 10:39:19;;;;;;;14.05;12.10;;;;;;;;;;6245094;22;20476;-54
2024/03/19 10:41:48;;;;;;;16.60;14.32;;;;;;;;;;6245031;22;20485;-50
2024/03/19 10:44:17;;;;;;;14.20;11.55;;;;;;;;;;6245062;22;20176;-51
2024/03/19 10:46:45;;;;;;;13.32;10.68;;;;;;;;;;6244940;22;20180;-53
2024/03/19 10:49:16;;;;;;;14.00;11.18;;;;;;;;;;6245171;22;20184;-52
2024/03/19 10:51:45;;;;;;;14.82;13.23;;;;;;;;;;6244975;22;20158;-52
2024/03/19 10:54:16;;;;;;;18.25;14.48;;;;;;;;;;6244880;22;20260;-54
2024/03/19 10:56:44;;;;;;;18.33;13.80;;;;;;;;;;6244755;22;20189;-53
2024/03/19 10:59:14;;;;;;;12.63;11.10;;;;;;;;;;6245024;22;20199;-53
2024/03/19 11:01:46;;;;;;;13.52;11.27;;;;;;;;;;6244593;22;20181;-52
2024/03/19 11:04:15;;;;;;;10.73;9.40;;;;;;;;;;6244685;22;20205;-54
2024/03/19 11:06:43;;;;;;;14.25;12.10;;;;;;;;;;6245075;22;20208;-51
2024/03/19 11:09:21;;;;;;;14.27;12.77;;;;;;;;;;6244332;22;20173;-52
2024/03/19 11:11:52;;;;;;;12.63;11.30;;;;;;;;;;6244698;22;20619;-51
2024/03/19 11:14:19;;;;;;;10.73;9.52;;;;;;;;;;6245084;22;20232;-55
2024/03/19 11:16:47;;;;;;;13.25;11.10;;;;;;;;;;6244199;23;20193;-54
2024/03/19 11:19:20;;;;;;;15.90;11.80;;;;;;;;;;6244718;22;20180;-50
2024/03/19 11:21:49;;;;;;;14.45;12.15;;;;;;;;;;6244689;22;20204;-51
2024/03/19 11:24:24;;;;;;;12.27;11.05;;;;;;;;;;6244731;22;20173;-50
2024/03/19 11:26:55;;;;;;;13.80;12.23;;;;;;;;;;6244284;22;20176;-50
2024/03/19 11:29:25;;;;;;;19.23;15.38;;;;;;;;;;6244618;22;20180;-51
2024/03/19 11:31:52;;;;;;;15.30;12.40;;;;;;;;;;6244087;22;20263;-51
2024/03/19 11:34:20;;;;;;;15.13;12.48;;;;;;;;;;6244345;22;20215;-52
2024/03/19 11:36:48;;;;;;;11.82;10.63;;;;;;;;;;6244311;22;20197;-52
2024/03/19 11:39:16;;;;;;;9.30;8.30;;;;;;;;;;6244628;22;20177;-51
2024/03/19 11:41:46;;;;;;;15.48;11.70;;;;;;;;;;6244614;23;20513;-52
2024/03/19 11:44:15;;;;;;;15.05;12.57;;;;;;;;;;6244495;22;20252;-52
2024/03/19 11:46:43;;;;;;;16.60;13.75;;;;;;;;;;6244385;22;20177;-53
2024/03/19 11:49:23;;;;;;;12.93;11.10;;;;;;;;;;6243736;22;20193;-51
2024/03/19 11:51:57;;;;;;;14.35;12.90;;;;;;;;;;6244215;22;20173;-51
2024/03/19 11:54:25;;;;;;;12.55;10.50;;;;;;;;;;6244129;22;20187;-51
2024/03/19 11:56:54;;;;;;;14.70;11.45;;;;;;;;;;6244026;22;20857;-52
2024/03/19 11:59:25;;;;;;;12.88;11.50;;;;;;;;;;6244609;22;20157;-51
2024/03/19 12:01:54;;;;;;;13.30;11.18;;;;;;;;;;6244016;22;20185;-51
2024/03/19 12:04:21;;;;;;;10.75;9.65;;;;;;;;;;6244567;22;20634;-50
2024/03/19 12:06:49;;;;;;;12.15;10.85;;;;;;;;;;6243703;22;20175;-51
2024/03/19 12:09:18;;;;;;;10.00;8.95;;;;;;;;;;6244416;22;20173;-51
2024/03/19 12:11:46;;;;;;;13.43;11.70;;;;;;;;;;6244481;23;20646;-57
2024/03/19 12:14:17;;;;;;;12.90;10.88;;;;;;;;;;6244268;22;20177;-49
2024/03/19 12:16:47;;;;;;;12.38;10.70;;;;;;;;;;6244405;22;20521;-48
2024/03/19 12:19:17;;;;;;;14.20;11.18;;;;;;;;;;6245061;22;20227;-54
2024/03/19 12:21:47;;;;;;;11.85;10.48;;;;;;;;;;6244890;22;20586;-50
2024/03/19 12:24:16;;;;;;;14.95;13.35;;;;;;;;;;6243999;22;20172;-54
2024/03/19 12:26:47;;;;;;;14.77;12.00;;;;;;;;;;6243642;22;20169;-56
2024/03/19 12:29:17;;;;;;;13.82;12.05;;;;;;;;;;6244252;22;20165;-54
2024/03/19 12:31:49;;;;;;;17.02;11.18;;;;;;;;;;6243240;22;20173;-52
2024/03/19 12:34:37;;;;;;;11.60;9.55;;;;;;;;;;6243553;22;20183;-53
2024/03/19 12:37:06;;;;;;;14.05;12.52;;;;;;;;;;6243868;22;20576;-49
2024/03/19 12:39:34;;;;;;;11.40;10.13;;;;;;;;;;6243758;22;20649;-54
2024/03/19 12:42:03;;;;;;;17.63;12.20;;;;;;;;;;6243716;22;20173;-54
2024/03/19 12:44:31;;;;;;;10.82;9.20;;;;;;;;;;6244054;22;20184;-55
2024/03/19 12:46:59;;;;;;;10.63;8.75;;;;;;;;;;6243836;22;20175;-51
2024/03/19 12:49:26;;;;;;;9.25;8.05;;;;;;;;;;6243651;22;20631;-53
2024/03/19 12:51:54;;;;;;;9.68;8.18;;;;;;;;;;6243514;22;20177;-52
2024/03/19 12:54:21;;;;;;;12.35;10.30;;;;;;;;;;6243338;22;20203;-55
2024/03/19 12:56:49;;;;;;;11.60;10.40;;;;;;;;;;6243194;22;20197;-49
2024/03/19 12:59:16;;;;;;;11.43;8.93;;;;;;;;;;6243395;22;20180;-53
2024/03/19 13:01:45;;;;;;;9.77;7.55;;;;;;;;;;6242850;22;20173;-54
2024/03/19 13:04:13;;;;;;;8.77;7.88;;;;;;;;;;6243302;22;20184;-56
2024/03/19 13:06:40;;;;;;;9.60;8.60;;;;;;;;;;6243042;22;20180;-54
2024/03/19 13:09:08;;;;;;;12.63;9.45;;;;;;;;;;6243768;22;20197;-54
2024/03/19 13:11:36;;;;;;;13.43;9.98;;;;;;;;;;6243657;22;20684;-55
2024/03/19 13:14:03;;;;;;;10.07;7.13;;;;;;;;;;6243336;22;20183;-54
2024/03/19 13:16:33;;;;;;;8.40;7.03;;;;;;;;;;6243151;22;20578;-50
2024/03/19 13:19:02;;;;;;;8.85;7.60;;;;;;;;;;6244252;23;20197;-54
2024/03/19 13:21:30;;;;;;;7.68;6.93;;;;;;;;;;6245233;22;20172;-53
2024/03/19 13:23:57;;;;;;;7.88;6.25;;;;;;;;;;6245233;22;20622;-53
2024/03/19 13:26:24;;;;;;;5.65;5.13;;;;;;;;;;6244765;22;20177;-55
2024/03/19 13:28:52;;;;;;;6.35;5.75;;;;;;;;;;6245166;22;20753;-51
2024/03/19 13:31:19;;;;;;;6.60;5.13;;;;;;;;;;6245006;22;20179;-49
2024/03/19 13:33:47;;;;;;;5.72;5.10;;;;;;;;;;6245215;22;20173;-49
2024/03/19 13:36:16;;;;;;;7.25;6.47;;;;;;;;;;6245058;22;20177;-54
2024/03/19 13:38:48;;;;;;;5.13;4.60;;;;;;;;;;6245711;22;20200;-49
2024/03/19 13:41:15;;;;;;;6.47;5.88;;;;;;;;;;6245863;23;20614;-54
2024/03/19 13:43:45;;;;;;;9.55;7.97;;;;;;;;;;6244851;22;20524;-51
2024/03/19 13:46:13;;;;;;;7.10;6.40;;;;;;;;;;6245289;23;20173;-53
2024/03/19 13:48:42;;;;;;;8.32;6.85;;;;;;;;;;6245294;22;20200;-48
2024/03/19 13:51:10;;;;;;;7.90;6.80;;;;;;;;;;6245430;22;20180;-52
2024/03/19 13:53:40;;;;;;;6.32;5.50;;;;;;;;;;6245698;23;20707;-53
2024/03/19 13:56:08;;;;;;;5.85;5.35;;;;;;;;;;6245820;23;20173;-48
2024/03/19 13:58:35;;;;;;;8.35;7.15;;;;;;;;;;6245217;23;20201;-50
2024/03/19 14:01:03;;;;;;;7.60;6.68;;;;;;;;;;6245504;22;20173;-50
2024/03/19 14:03:31;;;;;;;9.43;7.55;;;;;;;;;;6244896;22;20179;-49
2024/03/19 14:05:58;;;;;;;6.57;5.97;;;;;;;;;;6245322;22;20178;-49
2024/03/19 14:08:26;;;;;;;8.00;7.20;;;;;;;;;;6245177;22;20267;-49
2024/03/19 14:10:55;;;;;;;6.97;5.25;;;;;;;;;;6245344;22;20260;-49
2024/03/19 14:13:22;;;;;;;8.82;7.20;;;;;;;;;;6245325;22;20255;-51
2024/03/19 14:15:50;;;;;;;7.60;6.35;;;;;;;;;;6245461;22;20510;-49
2024/03/19 14:18:18;;;;;;;7.07;5.68;;;;;;;;;;6244372;22;20236;-49
2024/03/19 14:20:45;;;;;;;5.88;5.30;;;;;;;;;;6244528;22;20184;-50
2024/03/19 14:23:13;;;;;;;5.93;5.32;;;;;;;;;;6244911;22;20337;-48
2024/03/19 14:25:41;;;;;;;6.88;6.18;;;;;;;;;;6245440;22;20653;-51
2024/03/19 14:28:09;;;;;;;6.45;5.70;;;;;;;;;;6244886;22;20189;-49
2024/03/19 14:30:37;;;;;;;6.82;6.13;;;;;;;;;;6244660;22;20173;-53
2024/03/19 14:33:07;;;;;;;6.65;5.95;;;;;;;;;;6244569;22;20173;-50
2024/03/19 14:35:35;;;;;;;7.65;6.30;;;;;;;;;;6245519;23;20545;-53
2024/03/19 14:38:02;;;;;;;7.30;6.60;;;;;;;;;;6244854;22;20205;-52
2024/03/19 14:40:31;;;;;;;6.40;5.80;;;;;;;;;;6245174;22;20653;-49